Time;durP1;ratioP1;P1;durP2;ratioP2;P2;SDS_P1;SDS_P2;PMS_P1;PMS_P2;Temp;Humidity;BMP_temperature;BMP_pressure;BME280_temperature;BME280_humidity;BME280_pressure;Samples;Min_cycle;Max_cycle;Signal;HPM_P1;HPM_P2
2023/09/24 00:00:13;;;;;;;0.47;0.47;;;;;;;13.85;81.97;96081.66;4372249;32;20244;-60
2023/09/24 00:02:40;;;;;;;0.52;0.52;;;;;;;13.91;81.66;96078.63;4336231;32;20208;-61
2023/09/24 00:05:08;;;;;;;0.40;0.40;;;;;;;13.89;81.65;96077.34;4353963;32;20235;-60
2023/09/24 00:07:33;;;;;;;0.20;0.20;;;;;;;13.82;82.02;96083.06;4363996;32;20199;-60
2023/09/24 00:10:00;;;;;;;0.23;0.23;;;;;;;13.84;82.24;96083.56;4353396;32;20253;-60
2023/09/24 00:12:29;;;;;;;2.77;0.93;;;;;;;13.64;82.98;96083.91;4359086;32;20188;-60
2023/09/24 00:14:56;;;;;;;0.40;0.40;;;;;;;13.73;82.70;96074.94;4358852;32;20200;-60
2023/09/24 00:17:23;;;;;;;0.50;0.50;;;;;;;13.85;82.07;96084.34;4337813;32;20254;-61
2023/09/24 00:19:49;;;;;;;0.50;0.50;;;;;;;13.83;82.20;96091.84;4365528;32;20252;-60
2023/09/24 00:22:15;;;;;;;0.00;0.00;;;;;;;13.86;82.00;96097.38;4371379;32;20181;-60
2023/09/24 00:24:42;;;;;;;0.20;0.20;;;;;;;13.84;82.28;96093.44;4361579;32;20247;-60
2023/09/24 00:27:09;;;;;;;0.27;0.27;;;;;;;13.92;81.65;96098.09;4357243;32;20197;-61
2023/09/24 00:29:36;;;;;;;0.07;0.07;;;;;;;13.92;81.62;96098.09;4359232;32;20209;-60
2023/09/24 00:32:03;;;;;;;0.30;0.30;;;;;;;13.92;81.19;96100.75;4362574;32;20208;-61
2023/09/24 00:34:30;;;;;;;0.10;0.10;;;;;;;13.91;81.20;96096.50;4349715;32;20201;-62
2023/09/24 00:36:57;;;;;;;0.60;0.60;;;;;;;13.82;80.91;96103.59;4351585;32;20205;-61
2023/09/24 00:39:23;;;;;;;0.23;0.23;;;;;;;13.85;80.77;96109.13;4367091;32;20192;-61
2023/09/24 00:41:51;;;;;;;0.20;0.20;;;;;;;13.90;80.60;96110.94;4362931;32;20216;-61
2023/09/24 00:44:17;;;;;;;0.30;0.30;;;;;;;13.85;80.50;96109.13;4376777;32;20189;-61
2023/09/24 00:46:44;;;;;;;0.20;0.20;;;;;;;13.86;80.78;96109.94;4370789;32;20203;-62
2023/09/24 00:49:15;;;;;;;0.73;0.50;;;;;;;13.91;80.56;96112.50;4358265;32;20265;-61
2023/09/24 00:51:43;;;;;;;1.23;0.53;;;;;;;14.09;80.47;96115.09;4361463;32;20197;-61
2023/09/24 00:54:10;;;;;;;0.40;0.40;;;;;;;13.94;80.74;96111.91;4368358;32;20311;-60
2023/09/24 00:56:37;;;;;;;0.10;0.10;;;;;;;13.69;81.31;96116.63;4375822;32;20180;-61
2023/09/24 00:59:04;;;;;;;0.53;0.53;;;;;;;13.81;81.06;96118.81;4378160;32;20204;-61
2023/09/24 01:01:31;;;;;;;0.23;0.23;;;;;;;13.69;81.91;96110.50;4358659;32;20258;-61
2023/09/24 01:03:58;;;;;;;0.93;0.53;;;;;;;13.69;82.20;96113.94;4354149;32;20227;-61
2023/09/24 01:06:25;;;;;;;0.53;0.37;;;;;;;13.86;81.98;96112.59;4345107;32;20192;-61
2023/09/24 01:08:51;;;;;;;0.53;0.53;;;;;;;13.81;82.16;96112.69;4360776;32;20207;-61
2023/09/24 01:11:19;;;;;;;0.47;0.47;;;;;;;13.81;81.86;96120.69;4377761;32;20226;-61
2023/09/24 01:13:49;;;;;;;1.00;0.77;;;;;;;13.84;82.11;96122.75;4355123;32;20250;-61
2023/09/24 01:16:15;;;;;;;3.50;0.53;;;;;;;13.71;82.56;96117.12;4334744;32;20181;-61
2023/09/24 01:18:44;;;;;;;0.40;0.40;;;;;;;13.74;82.00;96121.06;4341808;32;20301;-61
2023/09/24 01:21:15;;;;;;;1.10;0.53;;;;;;;13.76;82.14;96116.22;4360746;32;20197;-61
2023/09/24 01:23:42;;;;;;;0.10;0.10;;;;;;;13.79;81.95;96115.63;4350141;32;20237;-61
2023/09/24 01:26:11;;;;;;;0.30;0.30;;;;;;;13.87;81.83;96119.50;4347187;32;20347;-61
2023/09/24 01:28:39;;;;;;;0.40;0.40;;;;;;;13.72;81.81;96124.00;4339583;32;20247;-61
2023/09/24 01:31:07;;;;;;;0.80;0.70;;;;;;;13.72;82.27;96115.22;4363209;32;20218;-61
2023/09/24 01:33:36;;;;;;;0.63;0.40;;;;;;;13.70;82.22;96126.22;4372985;32;20189;-61
2023/09/24 01:36:02;;;;;;;0.33;0.33;;;;;;;13.62;82.69;96129.53;4354829;32;20189;-61
2023/09/24 01:38:28;;;;;;;1.30;0.83;;;;;;;13.82;82.20;96127.59;4349286;32;20205;-61
2023/09/24 01:40:54;;;;;;;0.40;0.40;;;;;;;13.59;82.67;96129.31;4340763;32;20209;-61
2023/09/24 01:43:19;;;;;;;0.73;0.40;;;;;;;13.62;82.39;96126.88;4350713;32;20276;-61
2023/09/24 01:45:45;;;;;;;0.60;0.37;;;;;;;13.50;82.96;96133.75;4357246;32;20192;-61
2023/09/24 01:48:13;;;;;;;0.43;0.37;;;;;;;13.45;83.60;96131.94;4368325;32;20306;-61
2023/09/24 01:50:38;;;;;;;0.90;0.50;;;;;;;13.59;82.82;96140.78;4375534;32;20192;-61
2023/09/24 01:53:05;;;;;;;0.30;0.30;;;;;;;13.67;82.40;96140.12;4362864;32;20211;-61
2023/09/24 01:55:31;;;;;;;0.30;0.30;;;;;;;13.66;82.39;96143.87;4366288;32;20185;-61
2023/09/24 01:57:59;;;;;;;0.30;0.30;;;;;;;13.64;82.34;96153.25;4368710;32;20208;-61
2023/09/24 02:00:25;;;;;;;0.20;0.20;;;;;;;13.66;82.15;96149.19;4316189;32;20261;-61
2023/09/24 02:03:00;;;;;;;1.33;0.50;;;;;;;13.69;82.21;96153.94;4325554;32;20270;-60
2023/09/24 02:05:34;;;;;;;0.10;0.10;;;;;;;13.56;82.34;96154.69;4362386;32;20235;-60
2023/09/24 02:08:02;;;;;;;0.20;0.20;;;;;;;13.54;82.67;96162.19;4337768;32;20201;-61
2023/09/24 02:10:41;;;;;;;0.23;0.23;;;;;;;13.47;83.27;96164.44;4348803;32;20203;-61
2023/09/24 02:13:12;;;;;;;2.90;0.27;;;;;;;13.63;82.36;96164.97;4370912;32;20207;-61
2023/09/24 02:15:41;;;;;;;1.60;0.40;;;;;;;13.71;82.55;96167.00;4354209;32;20187;-60
2023/09/24 02:18:06;;;;;;;0.37;0.37;;;;;;;13.71;82.50;96173.13;4338776;32;20215;-60
2023/09/24 02:20:32;;;;;;;0.20;0.20;;;;;;;13.55;83.18;96181.63;4339657;32;20200;-60
2023/09/24 02:23:00;;;;;;;0.30;0.30;;;;;;;13.63;82.81;96179.09;4362913;32;20230;-62
2023/09/24 02:25:33;;;;;;;0.30;0.30;;;;;;;13.57;82.93;96188.25;4349066;32;20212;-61
2023/09/24 02:27:59;;;;;;;1.30;0.83;;;;;;;13.50;83.50;96195.06;4325266;32;20212;-61
2023/09/24 02:30:29;;;;;;;0.33;0.33;;;;;;;13.37;84.71;96191.22;4362934;32;20189;-60
2023/09/24 02:32:55;;;;;;;0.33;0.33;;;;;;;13.32;84.98;96199.28;4359307;32;20192;-60
2023/09/24 02:35:22;;;;;;;0.47;0.47;;;;;;;13.39;84.28;96197.06;4347983;32;20192;-60
2023/09/24 02:37:50;;;;;;;0.30;0.30;;;;;;;13.46;84.17;96192.19;4331410;32;20234;-60
2023/09/24 02:40:22;;;;;;;0.00;0.00;;;;;;;13.45;83.89;96198.59;4370329;32;20189;-61
2023/09/24 02:42:52;;;;;;;0.30;0.30;;;;;;;13.31;84.65;96200.38;4354783;32;20279;-60
2023/09/24 02:45:19;;;;;;;0.60;0.60;;;;;;;13.39;83.71;96205.84;4353829;32;20350;-60
2023/09/24 02:47:47;;;;;;;0.10;0.10;;;;;;;13.22;84.69;96204.78;4335197;32;20196;-60
2023/09/24 02:50:14;;;;;;;2.20;1.00;;;;;;;13.28;84.72;96215.09;4346426;32;20209;-60
2023/09/24 02:52:58;;;;;;;0.57;0.57;;;;;;;13.20;85.16;96217.59;4374222;32;20250;-59
2023/09/24 02:55:26;;;;;;;0.40;0.40;;;;;;;13.18;85.46;96212.56;4375448;32;20197;-59
2023/09/24 02:57:52;;;;;;;0.47;0.47;;;;;;;13.13;85.65;96222.44;4367292;32;20192;-60
2023/09/24 03:00:26;;;;;;;0.20;0.20;;;;;;;12.98;86.18;96229.56;4366532;32;20328;-60
2023/09/24 03:02:56;;;;;;;0.37;0.37;;;;;;;12.89;86.82;96225.16;4369666;32;20295;-59
2023/09/24 03:05:24;;;;;;;1.00;0.30;;;;;;;12.96;86.49;96228.25;4373490;32;20275;-60
2023/09/24 03:07:54;;;;;;;0.27;0.27;;;;;;;12.92;86.74;96230.69;4374298;32;20209;-60
2023/09/24 03:10:21;;;;;;;0.30;0.30;;;;;;;12.89;86.95;96236.59;4334574;32;20209;-59
2023/09/24 03:12:49;;;;;;;0.50;0.50;;;;;;;12.89;87.13;96236.59;4370340;32;20189;-60
2023/09/24 03:15:15;;;;;;;0.60;0.60;;;;;;;12.89;86.95;96239.25;4338613;32;20197;-60
2023/09/24 03:17:43;;;;;;;0.50;0.30;;;;;;;12.91;87.25;96234.44;4367543;32;20208;-60
2023/09/24 03:20:16;;;;;;;0.60;0.60;;;;;;;12.96;87.04;96242.38;4325429;32;20205;-61
2023/09/24 03:22:50;;;;;;;0.30;0.30;;;;;;;12.94;87.07;96241.88;4342136;32;20209;-61
2023/09/24 03:25:20;;;;;;;0.30;0.30;;;;;;;13.00;86.78;96235.41;4342841;32;20184;-60
2023/09/24 03:27:47;;;;;;;0.47;0.47;;;;;;;12.97;86.80;96238.63;4359833;32;20211;-60
2023/09/24 03:30:14;;;;;;;0.20;0.20;;;;;;;12.72;87.91;96241.59;4362621;32;20208;-61
2023/09/24 03:32:40;;;;;;;0.43;0.43;;;;;;;12.74;87.93;96240.22;4374829;32;20248;-60
2023/09/24 03:35:09;;;;;;;0.40;0.40;;;;;;;12.76;88.21;96247.94;4359165;32;20215;-61
2023/09/24 03:37:40;;;;;;;0.50;0.50;;;;;;;12.86;87.69;96239.84;4368192;32;20188;-61
2023/09/24 03:40:17;;;;;;;0.33;0.33;;;;;;;12.82;87.82;96251.34;4367206;32;20244;-61
2023/09/24 03:42:47;;;;;;;9.33;0.93;;;;;;;12.76;87.95;96252.47;4374868;32;20204;-61
2023/09/24 03:45:16;;;;;;;0.73;0.47;;;;;;;12.82;87.72;96251.34;4352083;32;20215;-61
2023/09/24 03:47:42;;;;;;;0.67;0.63;;;;;;;12.69;88.10;96256.25;4341981;32;20233;-61
2023/09/24 03:50:13;;;;;;;0.43;0.43;;;;;;;12.69;88.11;96253.59;4348558;32;20193;-61
2023/09/24 03:52:40;;;;;;;0.30;0.30;;;;;;;12.74;87.92;96250.87;4349866;32;20184;-61
2023/09/24 03:55:09;;;;;;;0.57;0.57;;;;;;;12.76;87.99;96250.59;4355862;32;20196;-61
2023/09/24 03:57:37;;;;;;;0.50;0.50;;;;;;;12.81;87.69;96253.22;4360058;32;20236;-61
2023/09/24 04:00:21;;;;;;;0.43;0.43;;;;;;;12.85;87.54;96256.09;4358494;32;20193;-60
2023/09/24 04:02:51;;;;;;;0.30;0.30;;;;;;;12.76;87.37;96257.78;4342599;32;20197;-61
2023/09/24 04:05:19;;;;;;;0.50;0.50;;;;;;;12.83;87.09;96253.72;4358844;32;20226;-61
2023/09/24 04:07:49;;;;;;;0.10;0.10;;;;;;;12.72;87.62;96253.03;4349562;32;20189;-61
2023/09/24 04:10:15;;;;;;;0.97;0.77;;;;;;;12.70;87.85;96249.06;4346154;32;20196;-61
2023/09/24 04:12:43;;;;;;;0.63;0.63;;;;;;;12.80;87.47;96248.97;4346511;32;20408;-61
2023/09/24 04:15:09;;;;;;;0.20;0.20;;;;;;;12.76;87.41;96247.94;4353089;32;20185;-60
2023/09/24 04:17:36;;;;;;;0.23;0.23;;;;;;;12.70;87.81;96255.19;4356581;32;20193;-60
2023/09/24 04:20:03;;;;;;;0.00;0.00;;;;;;;12.65;88.06;96249.94;4365430;32;20240;-60
2023/09/24 04:22:30;;;;;;;1.17;0.83;;;;;;;12.65;88.29;96254.47;4361875;32;20208;-62
2023/09/24 04:24:55;;;;;;;0.50;0.50;;;;;;;12.67;87.74;96257.66;4375990;32;20204;-60
2023/09/24 04:27:25;;;;;;;0.93;0.93;;;;;;;12.48;88.46;96251.44;4330058;32;20217;-61
2023/09/24 04:29:54;;;;;;;0.13;0.13;;;;;;;12.57;88.44;96260.41;4373313;32;20212;-61
2023/09/24 04:32:20;;;;;;;0.27;0.27;;;;;;;12.49;88.76;96266.31;4377770;32;20208;-61
2023/09/24 04:34:46;;;;;;;0.60;0.60;;;;;;;12.56;88.35;96264.13;4369944;32;20261;-61
2023/09/24 04:37:13;;;;;;;0.20;0.20;;;;;;;12.46;88.97;96273.03;4347805;32;20190;-60
2023/09/24 04:39:39;;;;;;;0.67;0.67;;;;;;;12.51;88.91;96274.81;4328038;32;20208;-61
2023/09/24 04:42:06;;;;;;;0.20;0.20;;;;;;;12.39;88.91;96275.22;4320738;32;20224;-61
2023/09/24 04:44:37;;;;;;;0.63;0.63;;;;;;;12.42;89.08;96274.66;4338066;32;20201;-61
2023/09/24 04:47:07;;;;;;;0.30;0.30;;;;;;;12.41;89.02;96274.94;4330656;32;20263;-61
2023/09/24 04:49:34;;;;;;;0.50;0.50;;;;;;;12.24;89.74;96278.03;4374776;32;20193;-61
2023/09/24 04:52:01;;;;;;;3.30;1.03;;;;;;;12.40;89.63;96282.13;4349299;32;20189;-61
2023/09/24 04:54:27;;;;;;;0.10;0.10;;;;;;;12.34;89.62;96278.72;4373843;32;20215;-61
2023/09/24 04:56:53;;;;;;;0.40;0.40;;;;;;;12.41;89.54;96280.25;4337032;32;20212;-61
2023/09/24 04:59:19;;;;;;;0.77;0.73;;;;;;;12.35;89.77;96274.19;4352749;32;20234;-61
2023/09/24 05:01:46;;;;;;;0.40;0.40;;;;;;;12.30;89.68;96272.34;4365774;32;20250;-61
2023/09/24 05:04:13;;;;;;;0.47;0.47;;;;;;;12.47;88.92;96276.50;4363064;32;20346;-61
2023/09/24 05:06:39;;;;;;;0.03;0.03;;;;;;;12.54;88.11;96277.72;4366288;32;20196;-60
2023/09/24 05:09:04;;;;;;;0.40;0.40;;;;;;;12.50;88.14;96278.56;4338002;32;20251;-61
2023/09/24 05:11:29;;;;;;;0.20;0.20;;;;;;;12.41;88.88;96283.72;4361513;32;20255;-61
2023/09/24 05:13:55;;;;;;;0.20;0.20;;;;;;;12.46;88.67;96286.34;4375967;32;20253;-61
2023/09/24 05:16:22;;;;;;;0.47;0.47;;;;;;;12.52;88.19;96285.19;4336445;32;20189;-61
2023/09/24 05:18:47;;;;;;;2.37;0.50;;;;;;;12.32;88.48;96294.16;4342825;32;20211;-60
2023/09/24 05:21:19;;;;;;;0.50;0.50;;;;;;;12.22;89.30;96299.59;4351076;32;20196;-61
2023/09/24 05:23:45;;;;;;;0.20;0.20;;;;;;;12.22;89.40;96296.13;4362857;32;20191;-61
2023/09/24 05:26:14;;;;;;;0.30;0.30;;;;;;;12.22;89.71;96301.44;4360153;32;20232;-60
2023/09/24 05:28:41;;;;;;;0.37;0.37;;;;;;;12.29;89.62;96299.25;4336589;32;20243;-61
2023/09/24 05:31:08;;;;;;;0.43;0.43;;;;;;;12.32;89.14;96306.66;4326793;32;20198;-60
2023/09/24 05:33:35;;;;;;;0.30;0.30;;;;;;;12.35;88.67;96301.59;4362224;32;20268;-61
2023/09/24 05:36:03;;;;;;;0.80;0.80;;;;;;;12.31;88.53;96305.88;4364392;32;20189;-61
2023/09/24 05:38:30;;;;;;;0.47;0.47;;;;;;;12.43;88.43;96304.72;4337455;32;20202;-60
2023/09/24 05:40:56;;;;;;;0.13;0.13;;;;;;;12.43;88.25;96312.72;4364763;32;20226;-61
2023/09/24 05:43:22;;;;;;;0.60;0.60;;;;;;;12.41;88.23;96314.84;4359210;32;20204;-61
2023/09/24 05:45:49;;;;;;;0.83;0.83;;;;;;;12.39;88.49;96317.78;4355291;32;20201;-61
2023/09/24 05:48:17;;;;;;;0.10;0.10;;;;;;;12.35;89.03;96322.09;4351004;32;20203;-61
2023/09/24 05:50:43;;;;;;;0.67;0.67;;;;;;;12.42;88.94;96321.78;4376940;32;20259;-61
2023/09/24 05:53:10;;;;;;;0.40;0.40;;;;;;;12.33;88.30;96330.34;4376690;32;20189;-61
2023/09/24 05:55:36;;;;;;;0.40;0.40;;;;;;;12.44;88.58;96325.75;4354691;32;20200;-61
2023/09/24 05:58:06;;;;;;;0.40;0.40;;;;;;;12.36;88.49;96332.44;4333754;32;20216;-61
2023/09/24 06:00:35;;;;;;;0.30;0.30;;;;;;;12.31;88.60;96337.81;4334851;32;20224;-60
2023/09/24 06:03:02;;;;;;;0.30;0.30;;;;;;;12.18;89.22;96335.00;4353109;32;20192;-61
2023/09/24 06:05:28;;;;;;;0.20;0.20;;;;;;;12.29;88.77;96329.31;4372777;32;20216;-61
2023/09/24 06:07:54;;;;;;;0.30;0.30;;;;;;;12.28;89.02;96327.72;4353890;32;20259;-61
2023/09/24 06:10:20;;;;;;;0.60;0.60;;;;;;;12.35;89.02;96327.41;4324154;32;20207;-61
2023/09/24 06:12:47;;;;;;;1.23;1.13;;;;;;;12.24;89.29;96340.00;4356586;32;20204;-61
2023/09/24 06:15:13;;;;;;;0.30;0.30;;;;;;;12.29;89.26;96341.81;4359637;32;20228;-61
2023/09/24 06:17:39;;;;;;;0.20;0.20;;;;;;;12.16;89.92;96345.91;4366455;32;20197;-61
2023/09/24 06:20:05;;;;;;;0.70;0.70;;;;;;;12.30;89.53;96349.53;4340327;32;20227;-60
2023/09/24 06:22:31;;;;;;;0.40;0.40;;;;;;;12.27;89.23;96341.28;4367676;32;20212;-61
2023/09/24 06:24:57;;;;;;;0.50;0.50;;;;;;;12.22;89.89;96342.16;4364097;32;20197;-61
2023/09/24 06:27:23;;;;;;;0.70;0.70;;;;;;;12.15;90.21;96354.16;4375558;32;20199;-61
2023/09/24 06:29:50;;;;;;;0.60;0.60;;;;;;;12.20;90.20;96352.28;4349628;32;20327;-61
2023/09/24 06:32:15;;;;;;;0.67;0.67;;;;;;;12.27;89.94;96355.41;4322411;32;20260;-61
2023/09/24 06:34:41;;;;;;;0.07;0.07;;;;;;;12.43;89.41;96349.97;4329878;32;20252;-61
2023/09/24 06:37:06;;;;;;;0.40;0.40;;;;;;;12.50;89.17;96361.06;4358775;32;20234;-61
2023/09/24 06:39:33;;;;;;;0.83;0.80;;;;;;;12.59;88.86;96356.75;4328567;32;20241;-61
2023/09/24 06:42:02;;;;;;;1.70;1.57;;;;;;;12.56;89.06;96359.97;4360347;32;20215;-63
2023/09/24 06:44:29;;;;;;;0.53;0.53;;;;;;;12.71;88.24;96367.81;4344401;32;20232;-61
2023/09/24 06:46:54;;;;;;;0.40;0.40;;;;;;;12.82;87.93;96369.31;4361975;32;20189;-61
2023/09/24 06:49:27;;;;;;;0.33;0.33;;;;;;;12.65;88.10;96371.59;4374860;32;20184;-61
2023/09/24 06:51:53;;;;;;;0.50;0.50;;;;;;;12.79;88.01;96369.06;4376059;32;20189;-61
2023/09/24 06:54:19;;;;;;;0.33;0.33;;;;;;;12.82;88.13;96368.50;4343174;32;20294;-61
2023/09/24 06:56:45;;;;;;;0.47;0.47;;;;;;;12.93;87.83;96370.00;4365034;32;20195;-59
2023/09/24 06:59:11;;;;;;;0.40;0.40;;;;;;;13.00;87.22;96376.59;4376663;32;20208;-60
2023/09/24 07:01:38;;;;;;;0.60;0.60;;;;;;;12.98;87.57;96389.38;4349187;32;20196;-60
2023/09/24 07:04:05;;;;;;;1.77;0.80;;;;;;;13.12;87.01;96380.72;4352168;32;20200;-61
2023/09/24 07:06:31;;;;;;;1.10;0.53;;;;;;;13.21;86.37;96387.06;4321789;32;20198;-61
2023/09/24 07:08:58;;;;;;;0.83;0.83;;;;;;;13.19;86.07;96384.66;4364509;32;20204;-61
2023/09/24 07:11:33;;;;;;;0.60;0.60;;;;;;;13.21;86.42;96381.72;4374082;32;20199;-61
2023/09/24 07:13:59;;;;;;;0.70;0.70;;;;;;;13.30;86.10;96393.34;4360428;32;20188;-61
2023/09/24 07:16:26;;;;;;;0.63;0.63;;;;;;;13.38;85.67;96382.84;4356202;32;20222;-61
2023/09/24 07:18:52;;;;;;;0.40;0.40;;;;;;;13.52;84.50;96398.16;4366411;32;20339;-61
2023/09/24 07:21:31;;;;;;;0.40;0.40;;;;;;;13.56;82.39;96391.97;4348298;32;20207;-61
2023/09/24 07:23:58;;;;;;;0.57;0.57;;;;;;;13.56;82.99;96393.84;4362918;32;20189;-61
2023/09/24 07:26:24;;;;;;;0.50;0.50;;;;;;;13.50;82.75;96403.78;4373702;32;20204;-61
2023/09/24 07:28:52;;;;;;;0.40;0.40;;;;;;;13.53;82.85;96403.19;4315819;32;20189;-62
2023/09/24 07:31:26;;;;;;;2.07;0.80;;;;;;;13.61;81.51;96391.13;4310536;32;20197;-61
2023/09/24 07:33:59;;;;;;;1.33;0.57;;;;;;;13.61;81.73;96399.91;4375699;32;20192;-61
2023/09/24 07:36:26;;;;;;;0.67;0.67;;;;;;;13.76;81.06;96405.03;4374587;32;20188;-61
2023/09/24 07:38:51;;;;;;;0.30;0.30;;;;;;;13.80;80.27;96404.47;4375403;32;20216;-61
2023/09/24 07:41:18;;;;;;;0.30;0.30;;;;;;;13.76;81.06;96393.59;4336742;32;20185;-61
2023/09/24 07:43:44;;;;;;;0.63;0.63;;;;;;;13.81;81.59;96404.19;4350233;32;20209;-62
2023/09/24 07:46:16;;;;;;;0.70;0.70;;;;;;;13.79;81.08;96405.56;4373531;32;20269;-61
2023/09/24 07:48:46;;;;;;;0.30;0.30;;;;;;;13.87;79.86;96405.72;4342027;32;20290;-61
2023/09/24 07:51:16;;;;;;;0.47;0.47;;;;;;;13.92;79.69;96413.66;4356183;32;20239;-61
2023/09/24 07:53:42;;;;;;;0.33;0.33;;;;;;;14.03;79.34;96403.63;4360238;32;20256;-60
2023/09/24 07:56:09;;;;;;;0.23;0.23;;;;;;;14.18;77.95;96403.41;4326735;32;20193;-60
2023/09/24 07:58:37;;;;;;;0.70;0.70;;;;;;;14.22;77.78;96412.44;4359264;32;20242;-61
2023/09/24 08:01:11;;;;;;;0.30;0.30;;;;;;;14.20;77.73;96405.78;4339914;32;20240;-61
2023/09/24 08:03:38;;;;;;;1.17;0.77;;;;;;;14.29;77.92;96406.75;4357773;32;20203;-61
2023/09/24 08:06:06;;;;;;;0.30;0.30;;;;;;;14.40;77.35;96411.66;4372610;32;20193;-61
2023/09/24 08:08:34;;;;;;;4.63;0.77;;;;;;;14.40;77.31;96414.31;4360401;32;20181;-61
2023/09/24 08:11:01;;;;;;;2.93;0.97;;;;;;;14.37;76.64;96414.88;4337322;32;20255;-62
2023/09/24 08:13:29;;;;;;;0.70;0.70;;;;;;;14.46;76.47;96411.59;4364326;32;20189;-61
2023/09/24 08:15:57;;;;;;;0.30;0.30;;;;;;;14.51;75.22;96406.97;4350916;32;20193;-61
2023/09/24 08:18:23;;;;;;;0.20;0.20;;;;;;;14.65;75.83;96409.69;4349265;32;20204;-61
2023/09/24 08:20:50;;;;;;;0.30;0.30;;;;;;;14.55;74.79;96405.28;4360366;32;20271;-61
2023/09/24 08:23:18;;;;;;;0.77;0.77;;;;;;;14.72;75.39;96400.22;4362996;32;20230;-61
2023/09/24 08:25:43;;;;;;;0.30;0.27;;;;;;;14.86;73.80;96415.47;4363869;32;20195;-61
2023/09/24 08:28:09;;;;;;;0.47;0.47;;;;;;;14.83;74.33;96414.19;4368062;32;20197;-61
2023/09/24 08:30:35;;;;;;;0.57;0.57;;;;;;;14.81;73.52;96408.34;4328897;32;20187;-61
2023/09/24 08:33:04;;;;;;;0.47;0.37;;;;;;;14.81;73.94;96400.31;4342428;32;20244;-61
2023/09/24 08:35:34;;;;;;;0.40;0.40;;;;;;;14.87;74.21;96412.50;4348521;32;20193;-63
2023/09/24 08:37:59;;;;;;;0.20;0.20;;;;;;;14.91;72.97;96418.87;4348809;32;20197;-62
2023/09/24 08:40:29;;;;;;;0.40;0.40;;;;;;;14.94;73.66;96417.50;4349143;32;20264;-62
2023/09/24 08:42:56;;;;;;;0.33;0.33;;;;;;;15.03;73.38;96411.16;4348391;32;20193;-62
2023/09/24 08:45:26;;;;;;;0.20;0.20;;;;;;;15.16;72.63;96419.50;4332359;32;20203;-62
2023/09/24 08:47:53;;;;;;;0.20;0.20;;;;;;;15.15;72.81;96413.38;4354237;32;20201;-62
2023/09/24 08:50:20;;;;;;;0.27;0.27;;;;;;;15.16;72.79;96416.84;4348915;32;20337;-62
2023/09/24 08:52:46;;;;;;;0.50;0.50;;;;;;;15.20;73.57;96415.94;4359419;32;20193;-62
2023/09/24 08:55:14;;;;;;;0.40;0.40;;;;;;;15.25;73.12;96418.53;4349906;32;20213;-62
2023/09/24 08:57:46;;;;;;;1.10;0.50;;;;;;;15.27;72.94;96426.25;4350444;32;20221;-62
2023/09/24 09:00:14;;;;;;;0.40;0.40;;;;;;;15.23;72.73;96419.91;4324616;32;20263;-62
2023/09/24 09:02:43;;;;;;;1.40;1.17;;;;;;;15.24;72.75;96427.63;4339087;32;20197;-61
2023/09/24 09:05:25;;;;;;;0.53;0.53;;;;;;;15.39;71.78;96423.88;4347528;32;20201;-61
2023/09/24 09:08:00;;;;;;;0.20;0.20;;;;;;;15.29;71.41;96424.88;4349347;32;20258;-62
2023/09/24 09:10:32;;;;;;;0.60;0.60;;;;;;;15.32;71.67;96421.59;4349353;32;20203;-61
2023/09/24 09:13:08;;;;;;;0.60;0.60;;;;;;;15.38;70.17;96411.63;4346194;32;20201;-62
2023/09/24 09:15:37;;;;;;;1.90;0.73;;;;;;;15.46;70.24;96416.25;4348593;32;20212;-62
2023/09/24 09:18:05;;;;;;;0.10;0.10;;;;;;;15.56;70.56;96418.78;4352437;32;20267;-62
2023/09/24 09:20:49;;;;;;;2.83;0.50;;;;;;;15.57;71.04;96411.53;4348897;32;20215;-61
2023/09/24 09:23:18;;;;;;;0.53;0.53;;;;;;;15.52;70.22;96411.59;4360379;32;20185;-62
2023/09/24 09:25:53;;;;;;;0.40;0.33;;;;;;;15.44;70.93;96405.06;4329741;32;20206;-62
2023/09/24 09:28:38;;;;;;;0.30;0.30;;;;;;;15.29;72.15;96406.16;4324814;32;20193;-61
2023/09/24 09:31:11;;;;;;;0.80;0.53;;;;;;;15.20;72.48;96409.78;4350729;32;20189;-62
2023/09/24 09:33:42;;;;;;;0.40;0.40;;;;;;;15.24;73.44;96405.44;4340578;32;20223;-62
2023/09/24 09:36:32;;;;;;;0.93;0.27;;;;;;;15.24;70.23;96405.44;4361071;32;20261;-61
2023/09/24 09:38:58;;;;;;;0.63;0.40;;;;;;;15.10;68.14;96408.09;4372586;32;20217;-61
2023/09/24 09:41:29;;;;;;;0.30;0.30;;;;;;;15.04;69.49;96410.06;4362084;32;20212;-61
2023/09/24 09:44:02;;;;;;;0.23;0.10;;;;;;;14.86;70.84;96405.59;4362956;32;20192;-61
2023/09/24 09:46:34;;;;;;;0.20;0.10;;;;;;;14.97;69.73;96404.31;4345445;32;20277;-61
2023/09/24 09:49:07;;;;;;;1.03;0.60;;;;;;;15.02;68.15;96408.78;4362920;32;20192;-62
2023/09/24 09:51:48;;;;;;;0.70;0.63;;;;;;;14.99;67.09;96410.16;4346406;32;20177;-62
2023/09/24 09:54:15;;;;;;;0.80;0.80;;;;;;;15.09;67.50;96399.28;4367427;32;20245;-61
2023/09/24 09:56:42;;;;;;;0.30;0.30;;;;;;;15.19;67.84;96402.84;4335118;32;20189;-61
2023/09/24 09:59:09;;;;;;;7.43;0.50;;;;;;;15.21;69.04;96390.78;4339111;32;20224;-61
2023/09/24 10:01:35;;;;;;;0.10;0.10;;;;;;;15.30;68.39;96396.25;4342489;32;20184;-61
2023/09/24 10:04:03;;;;;;;1.53;0.30;;;;;;;15.36;68.25;96395.87;4344004;32;20203;-61
2023/09/24 10:06:41;;;;;;;0.53;0.20;;;;;;;15.51;70.23;96394.75;4354896;32;20252;-61
2023/09/24 10:09:34;;;;;;;0.23;0.23;;;;;;;15.63;67.84;96389.72;4352224;32;20226;-62
2023/09/24 10:12:06;;;;;;;0.17;0.17;;;;;;;15.87;66.14;96394.84;4370111;32;20192;-62
2023/09/24 10:14:42;;;;;;;0.60;0.60;;;;;;;15.89;66.29;96390.00;4327797;32;20192;-62
2023/09/24 10:17:21;;;;;;;0.40;0.40;;;;;;;15.80;66.82;96381.88;4330917;32;20203;-62
2023/09/24 10:20:08;;;;;;;0.70;0.30;;;;;;;15.84;66.15;96389.31;4364443;32;20271;-62
2023/09/24 10:22:38;;;;;;;0.37;0.20;;;;;;;15.90;66.38;96394.25;4374522;32;20184;-62
2023/09/24 10:25:31;;;;;;;0.30;0.30;;;;;;;15.81;66.70;96391.47;4364094;32;20200;-62
2023/09/24 10:28:07;;;;;;;0.47;0.47;;;;;;;15.65;67.38;96392.09;4360021;32;20230;-62
2023/09/24 10:31:07;;;;;;;0.20;0.20;;;;;;;15.70;67.03;96398.16;4315216;32;20232;-62
2023/09/24 10:34:03;;;;;;;1.70;0.67;;;;;;;15.65;65.56;96390.22;4349099;32;20286;-62
2023/09/24 10:36:33;;;;;;;0.30;0.30;;;;;;;15.60;65.00;96395.66;4351246;32;20197;-62
2023/09/24 10:39:21;;;;;;;0.40;0.40;;;;;;;15.59;65.29;96391.41;4314255;32;20196;-62
2023/09/24 10:42:15;;;;;;;0.23;0.23;;;;;;;15.51;64.79;96386.75;4350475;32;20220;-62
2023/09/24 10:44:43;;;;;;;0.40;0.40;;;;;;;15.53;65.26;96381.88;4334794;32;20247;-62
2023/09/24 10:47:30;;;;;;;0.40;0.40;;;;;;;15.50;65.24;96382.47;4344216;32;20213;-61
2023/09/24 10:50:12;;;;;;;0.57;0.57;;;;;;;15.53;64.73;96389.91;4346078;32;20197;-62
2023/09/24 10:52:58;;;;;;;0.90;0.43;;;;;;;15.56;64.90;96381.31;4360413;32;20201;-62
2023/09/24 10:55:44;;;;;;;0.20;0.20;;;;;;;15.67;64.16;96381.91;4359414;32;20254;-62
2023/09/24 10:58:22;;;;;;;0.20;0.20;;;;;;;15.78;64.48;96381.41;4344672;32;20204;-62
2023/09/24 11:00:53;;;;;;;0.13;0.13;;;;;;;15.93;64.23;96382.16;4360024;32;20230;-62
2023/09/24 11:03:20;;;;;;;0.40;0.40;;;;;;;16.04;63.80;96381.63;4361996;32;20253;-62
2023/09/24 11:05:49;;;;;;;0.37;0.37;;;;;;;16.07;63.66;96385.59;4351374;32;20242;-62
2023/09/24 11:08:19;;;;;;;0.10;0.10;;;;;;;16.16;61.26;96378.44;4340914;32;20205;-62
2023/09/24 11:10:50;;;;;;;0.40;0.40;;;;;;;16.21;62.59;96378.28;4346311;32;20197;-62
2023/09/24 11:13:23;;;;;;;0.10;0.10;;;;;;;16.29;61.77;96377.59;4363667;32;20205;-62
2023/09/24 11:15:49;;;;;;;0.60;0.60;;;;;;;16.33;62.76;96378.56;4311388;32;20197;-61
2023/09/24 11:18:15;;;;;;;0.03;0.03;;;;;;;16.43;61.18;96378.31;4358492;32;20204;-62
2023/09/24 11:21:08;;;;;;;0.40;0.40;;;;;;;16.36;60.54;96380.66;4360172;32;20255;-62
2023/09/24 11:23:38;;;;;;;0.10;0.10;;;;;;;16.44;60.98;96382.56;4347838;32;20227;-62
2023/09/24 11:26:08;;;;;;;0.40;0.40;;;;;;;16.53;61.57;96373.81;4326948;32;20196;-62
2023/09/24 11:28:34;;;;;;;2.67;0.83;;;;;;;16.46;61.82;96384.94;4358099;32;20225;-62
2023/09/24 11:31:00;;;;;;;0.50;0.50;;;;;;;16.54;61.85;96381.56;4360303;32;20208;-62
2023/09/24 11:34:12;;;;;;;0.30;0.30;;;;;;;16.53;61.78;96376.50;4361207;32;20277;-62
2023/09/24 11:36:38;;;;;;;0.50;0.50;;;;;;;16.46;62.28;96385.75;4344990;32;20197;-62
2023/09/24 11:39:04;;;;;;;2.30;1.30;;;;;;;16.48;62.21;96383.56;4360338;32;20216;-61
2023/09/24 11:41:30;;;;;;;0.40;0.40;;;;;;;16.50;62.86;96367.19;4355116;32;20276;-62
2023/09/24 11:44:17;;;;;;;0.20;0.20;;;;;;;16.58;61.65;96363.00;4369753;32;20197;-62